Airport View

Enter AWOS ICAO identifier for current METAR.

ex. KFNL

KLHX 251653Z AUTO 02016G24KT 3SM BR BKN009 OVC015 M03/M04 A3015 RMK AO2 PK WND 03027/1628 UPB03E24SNE03B07E20 SLP222 P0000 I1002 T10281044 TSNO

25 Oct 2020 17:28

Frequency: 135.525

Phone: 719-384-5961

Other Area AWOS: KLAA - KPUB - KTAD - KSPD

TAF AMD KPUB 251401Z 2514/2612 05010KT P6SM OVC015 TEMPO 2514/2516 1SM -FZRA OVC004 FM251600 04020G30KT P6SM SCT015 BKN025 FM252000 05015G25KT 5SM -SN BKN015 OVC030 FM252300 03012G22KT 1SM -SN SCT008 OVC012 FM260400 02012KT 1SM -SN OVC010